Time;durP1;ratioP1;P1;durP2;ratioP2;P2;SDS_P1;SDS_P2;PMS_P1;PMS_P2;Temp;Humidity;BMP_temperature;BMP_pressure;BME280_temperature;BME280_humidity;BME280_pressure;Samples;Min_cycle;Max_cycle;Signal;HPM_P1;HPM_P2
2023/06/27 00:00:14;;;;;;;14.30;10.30;;;;;;;;;;108425;1250;22448;-80
2023/06/27 00:03:00;;;;;;;21.10;9.30;;;;;;;;;;108193;1251;23232;-80
2023/06/27 00:05:30;;;;;;;17.60;9.50;;;;;;;;;;108185;1254;22521;-80
2023/06/27 00:07:56;;;;;;;14.40;9.90;;;;;;;;;;110756;1250;22161;-80
2023/06/27 00:10:23;;;;;;;15.10;9.40;;;;;;;;;;108742;1251;22843;-80
2023/06/27 00:12:52;;;;;;;17.10;10.40;;;;;;;;;;108225;1250;22552;-81
2023/06/27 00:15:19;;;;;;;12.30;8.20;;;;;;;;;;108174;1251;22544;-81
2023/06/27 00:17:45;;;;;;;12.50;9.30;;;;;;;;;;108215;1250;25479;-80
2023/06/27 00:20:12;;;;;;;15.80;10.60;;;;;;;;;;108206;1251;25514;-80
2023/06/27 00:22:40;;;;;;;19.30;10.50;;;;;;;;;;108164;1251;23652;-80
2023/06/27 00:25:09;;;;;;;15.10;10.70;;;;;;;;;;108198;1251;22664;-80
2023/06/27 00:27:36;;;;;;;15.00;10.60;;;;;;;;;;108184;1251;23107;-80
2023/06/27 00:30:03;;;;;;;13.30;9.00;;;;;;;;;;108140;1251;22531;-80
2023/06/27 00:32:29;;;;;;;17.70;10.00;;;;;;;;;;108196;1254;26583;-80
2023/06/27 00:34:56;;;;;;;14.40;9.00;;;;;;;;;;108212;1251;25500;-80
2023/06/27 00:37:22;;;;;;;12.50;9.20;;;;;;;;;;108111;1251;22526;-80
2023/06/27 00:39:48;;;;;;;17.00;9.60;;;;;;;;;;108205;1251;23298;-80
2023/06/27 00:42:15;;;;;;;16.40;10.40;;;;;;;;;;108269;1251;22663;-81
2023/06/27 00:44:41;;;;;;;16.10;10.80;;;;;;;;;;108324;1251;22562;-81
2023/06/27 00:47:08;;;;;;;19.90;10.40;;;;;;;;;;109697;1251;22813;-81
2023/06/27 00:49:34;;;;;;;19.60;10.90;;;;;;;;;;110690;1251;22954;-82
2023/06/27 00:52:00;;;;;;;14.10;9.00;;;;;;;;;;110737;1251;22307;-81
2023/06/27 00:54:27;;;;;;;16.80;11.00;;;;;;;;;;110682;1250;22454;-81
2023/06/27 00:56:53;;;;;;;13.60;9.10;;;;;;;;;;110733;1251;22329;-81
2023/06/27 00:59:20;;;;;;;12.70;10.20;;;;;;;;;;110715;1251;22257;-82
2023/06/27 01:01:47;;;;;;;20.80;10.70;;;;;;;;;;110696;1252;22815;-82
2023/06/27 01:04:14;;;;;;;13.80;10.00;;;;;;;;;;110729;1251;22332;-82
2023/06/27 01:06:46;;;;;;;17.70;11.90;;;;;;;;;;110712;1251;22479;-82
2023/06/27 01:09:15;;;;;;;17.70;11.20;;;;;;;;;;110706;1251;22270;-81
2023/06/27 01:11:44;;;;;;;17.30;11.20;;;;;;;;;;110682;1251;22278;-81
2023/06/27 01:14:10;;;;;;;;;;;;;;;;;;110725;1251;23275;-82
2023/06/27 01:16:36;;;;;;;22.80;11.80;;;;;;;;;;110740;1251;22358;-81
2023/06/27 01:19:04;;;;;;;21.60;11.20;;;;;;;;;;109004;1253;23638;-81
2023/06/27 01:21:30;;;;;;;13.70;10.30;;;;;;;;;;108253;1252;22540;-81
2023/06/27 01:24:06;;;;;;;21.40;11.50;;;;;;;;;;108172;1251;23027;-81
2023/06/27 01:26:32;;;;;;;15.20;9.90;;;;;;;;;;108217;1251;22570;-81
2023/06/27 01:28:59;;;;;;;14.10;9.70;;;;;;;;;;108226;1252;22515;-81
2023/06/27 01:31:29;;;;;;;12.80;9.60;;;;;;;;;;108273;1251;23012;-81
2023/06/27 01:33:59;;;;;;;13.40;9.30;;;;;;;;;;108189;1251;22756;-81
2023/06/27 01:36:45;;;;;;;10.50;8.70;;;;;;;;;;108177;1252;24212;-81
2023/06/27 01:39:13;;;;;;;16.60;10.70;;;;;;;;;;108065;1251;22569;-82
2023/06/27 01:41:40;;;;;;;16.90;11.50;;;;;;;;;;108177;1251;22615;-81
2023/06/27 01:44:06;;;;;;;12.60;9.90;;;;;;;;;;108088;1252;24207;-81
2023/06/27 01:46:33;;;;;;;14.10;9.90;;;;;;;;;;108179;1251;22542;-81
2023/06/27 01:48:59;;;;;;;11.90;9.30;;;;;;;;;;108060;1251;26507;-81
2023/06/27 01:51:26;;;;;;;13.80;9.80;;;;;;;;;;108287;1251;22645;-81
2023/06/27 01:53:52;;;;;;;14.20;9.90;;;;;;;;;;108253;1251;22523;-81
2023/06/27 01:56:18;;;;;;;14.00;10.30;;;;;;;;;;108209;1251;22842;-81
2023/06/27 01:58:45;;;;;;;18.50;9.70;;;;;;;;;;108219;1251;22569;-81
2023/06/27 02:01:11;;;;;;;18.00;11.20;;;;;;;;;;108181;1251;22658;-81
2023/06/27 02:03:38;;;;;;;13.70;9.70;;;;;;;;;;108228;1253;24256;-81
2023/06/27 02:06:04;;;;;;;15.30;10.30;;;;;;;;;;108246;1251;24370;-81
2023/06/27 02:08:30;;;;;;;16.50;10.60;;;;;;;;;;108209;1251;23005;-81
2023/06/27 02:10:57;;;;;;;19.80;11.40;;;;;;;;;;108175;1254;22592;-81
2023/06/27 02:13:23;;;;;;;17.30;10.30;;;;;;;;;;108318;1254;25408;-81
2023/06/27 02:15:50;;;;;;;19.10;11.00;;;;;;;;;;108166;1254;22610;-81
2023/06/27 02:18:16;;;;;;;15.90;10.90;;;;;;;;;;108184;1253;22541;-81
2023/06/27 02:20:42;;;;;;;11.30;9.10;;;;;;;;;;108290;1252;25559;-81
2023/06/27 02:23:09;;;;;;;17.60;10.70;;;;;;;;;;108266;1251;23049;-81
2023/06/27 02:25:35;;;;;;;18.90;12.30;;;;;;;;;;108242;1253;22643;-81
2023/06/27 02:28:03;;;;;;;12.80;9.70;;;;;;;;;;108207;1250;22521;-81
2023/06/27 02:30:29;;;;;;;15.60;9.10;;;;;;;;;;108237;1251;22590;-81
2023/06/27 02:32:56;;;;;;;17.10;9.80;;;;;;;;;;108248;1252;25121;-81
2023/06/27 02:35:22;;;;;;;16.60;11.60;;;;;;;;;;108154;1251;22601;-82
2023/06/27 02:37:49;;;;;;;21.90;13.70;;;;;;;;;;108139;1252;23349;-81
2023/06/27 02:40:15;;;;;;;13.20;9.50;;;;;;;;;;108204;1252;22583;-81
2023/06/27 02:42:42;;;;;;;18.50;11.50;;;;;;;;;;108061;1252;22601;-81
2023/06/27 02:45:09;;;;;;;14.40;10.80;;;;;;;;;;108187;1251;25564;-81
2023/06/27 02:47:35;;;;;;;12.30;8.80;;;;;;;;;;110286;1251;22425;-82
2023/06/27 02:50:02;;;;;;;15.40;10.40;;;;;;;;;;110606;1251;22565;-82
2023/06/27 02:52:29;;;;;;;16.80;9.70;;;;;;;;;;110571;1251;22343;-82
2023/06/27 02:54:55;;;;;;;17.50;10.50;;;;;;;;;;109109;1252;22619;-82
2023/06/27 02:57:21;;;;;;;13.50;9.90;;;;;;;;;;108185;1252;25522;-82
2023/06/27 02:59:48;;;;;;;11.20;9.60;;;;;;;;;;108156;1252;25346;-81
2023/06/27 03:02:14;;;;;;;11.10;8.20;;;;;;;;;;110524;1251;22220;-82
2023/06/27 03:04:40;;;;;;;10.80;8.40;;;;;;;;;;110621;1251;22194;-82
2023/06/27 03:07:07;;;;;;;15.50;10.00;;;;;;;;;;110587;1253;22520;-82
2023/06/27 03:09:35;;;;;;;13.50;10.00;;;;;;;;;;110576;1251;22455;-82
2023/06/27 03:12:01;;;;;;;16.00;10.20;;;;;;;;;;108970;1252;22670;-82
2023/06/27 03:14:28;;;;;;;13.30;10.00;;;;;;;;;;108120;1253;23896;-81
2023/06/27 03:16:55;;;;;;;14.60;10.00;;;;;;;;;;108140;1252;25160;-82
2023/06/27 03:19:21;;;;;;;25.20;18.10;;;;;;;;;;108141;1251;22643;-81
2023/06/27 03:21:48;;;;;;;28.80;20.20;;;;;;;;;;108157;1254;23194;-82
2023/06/27 03:24:14;;;;;;;30.60;22.50;;;;;;;;;;108207;1254;22589;-82
2023/06/27 03:26:41;;;;;;;35.30;22.40;;;;;;;;;;108210;1251;24217;-82
2023/06/27 03:29:07;;;;;;;24.50;16.80;;;;;;;;;;108222;1253;22638;-81
2023/06/27 03:31:34;;;;;;;22.30;15.10;;;;;;;;;;108227;1251;22931;-81
2023/06/27 03:34:00;;;;;;;21.40;15.20;;;;;;;;;;108180;1252;22784;-82
2023/06/27 03:36:29;;;;;;;21.60;15.40;;;;;;;;;;108409;1251;23033;-82
2023/06/27 03:38:55;;;;;;;23.90;15.00;;;;;;;;;;109169;1253;23376;-81
2023/06/27 03:41:22;;;;;;;26.20;17.20;;;;;;;;;;108103;1252;24007;-81
2023/06/27 03:43:48;;;;;;;15.30;10.40;;;;;;;;;;108014;1251;22684;-81
2023/06/27 03:46:15;;;;;;;15.10;11.60;;;;;;;;;;108107;1252;22546;-81
2023/06/27 03:48:41;;;;;;;24.70;11.60;;;;;;;;;;108121;1255;23239;-81
2023/06/27 03:51:07;;;;;;;14.80;10.20;;;;;;;;;;108245;1251;22667;-81
2023/06/27 03:53:34;;;;;;;13.70;10.40;;;;;;;;;;108228;1251;22538;-81
2023/06/27 03:56:01;;;;;;;12.40;9.50;;;;;;;;;;108169;1251;25206;-81
2023/06/27 03:58:27;;;;;;;12.60;9.00;;;;;;;;;;108191;1251;22545;-81
2023/06/27 04:00:54;;;;;;;13.20;10.10;;;;;;;;;;108260;1254;22662;-82
2023/06/27 04:03:20;;;;;;;11.10;9.50;;;;;;;;;;108161;1251;25673;-81
2023/06/27 04:05:47;;;;;;;15.80;10.00;;;;;;;;;;108190;1253;22579;-82
2023/06/27 04:08:13;;;;;;;12.00;10.10;;;;;;;;;;108171;1250;22576;-81
2023/06/27 04:10:42;;;;;;;15.50;10.90;;;;;;;;;;108186;1251;25415;-81
2023/06/27 04:13:09;;;;;;;15.10;10.30;;;;;;;;;;108191;1251;22537;-81
2023/06/27 04:15:39;;;;;;;15.40;10.90;;;;;;;;;;108211;1253;24401;-82
2023/06/27 04:18:06;;;;;;;13.20;9.50;;;;;;;;;;108145;1253;22657;-82
2023/06/27 04:20:32;;;;;;;18.10;11.90;;;;;;;;;;108175;1250;22543;-82
2023/06/27 04:22:58;;;;;;;17.20;11.00;;;;;;;;;;108183;1253;22612;-81
2023/06/27 04:25:29;;;;;;;15.30;10.60;;;;;;;;;;108175;1253;22991;-81
2023/06/27 04:27:55;;;;;;;16.20;10.10;;;;;;;;;;108100;1251;26721;-81
2023/06/27 04:30:21;;;;;;;17.40;11.20;;;;;;;;;;108192;1251;46806;-81
2023/06/27 04:32:51;;;;;;;15.20;10.00;;;;;;;;;;107921;1254;58929;-81
2023/06/27 04:35:18;;;;;;;12.90;9.80;;;;;;;;;;108210;1254;30025;-81
2023/06/27 04:37:45;;;;;;;23.80;16.30;;;;;;;;;;108188;1251;57208;-82
2023/06/27 04:40:12;;;;;;;19.30;14.00;;;;;;;;;;108190;1251;22576;-82
2023/06/27 04:42:38;;;;;;;15.50;11.70;;;;;;;;;;108503;1251;25354;-82
2023/06/27 04:45:05;;;;;;;17.50;11.00;;;;;;;;;;108279;1250;23007;-81
2023/06/27 04:47:35;;;;;;;18.30;13.10;;;;;;;;;;108255;1251;22642;-82
2023/06/27 04:50:05;;;;;;;12.20;9.60;;;;;;;;;;108231;1253;23465;-82
2023/06/27 04:52:31;;;;;;;12.10;9.30;;;;;;;;;;108312;1251;25511;-82
2023/06/27 04:54:58;;;;;;;14.70;9.80;;;;;;;;;;108232;1251;23124;-82
2023/06/27 04:57:25;;;;;;;12.20;9.10;;;;;;;;;;108671;1253;22559;-82
2023/06/27 04:59:51;;;;;;;21.80;10.40;;;;;;;;;;108259;1254;22560;-82
2023/06/27 05:02:17;;;;;;;13.40;10.30;;;;;;;;;;109538;1251;22243;-82
2023/06/27 05:04:44;;;;;;;12.70;10.20;;;;;;;;;;108561;1251;22837;-81
2023/06/27 05:07:11;;;;;;;16.20;11.90;;;;;;;;;;108370;1251;22530;-82
2023/06/27 05:09:37;;;;;;;16.60;11.90;;;;;;;;;;108264;1251;22529;-81
2023/06/27 05:12:04;;;;;;;16.30;10.50;;;;;;;;;;108348;1251;23080;-82
2023/06/27 05:14:30;;;;;;;18.10;10.10;;;;;;;;;;108269;1252;24252;-81
2023/06/27 05:16:57;;;;;;;14.30;10.80;;;;;;;;;;108260;1252;22543;-82
2023/06/27 05:19:23;;;;;;;14.40;11.20;;;;;;;;;;108190;1251;23217;-82
2023/06/27 05:21:50;;;;;;;12.10;10.50;;;;;;;;;;108200;1253;25375;-81
2023/06/27 05:24:16;;;;;;;14.30;11.00;;;;;;;;;;108267;1251;25165;-82
2023/06/27 05:26:43;;;;;;;21.00;15.80;;;;;;;;;;108299;1251;22649;-82
2023/06/27 05:29:09;;;;;;;19.00;15.80;;;;;;;;;;108259;1253;22663;-82
2023/06/27 05:31:36;;;;;;;17.00;11.60;;;;;;;;;;108275;1251;24397;-82
2023/06/27 05:34:02;;;;;;;20.00;12.00;;;;;;;;;;108133;1253;22538;-82
2023/06/27 05:36:28;;;;;;;15.30;12.60;;;;;;;;;;108212;1255;22544;-82
2023/06/27 05:38:55;;;;;;;16.50;11.70;;;;;;;;;;108202;1254;22566;-82
2023/06/27 05:41:21;;;;;;;12.00;10.50;;;;;;;;;;108242;1253;24340;-81
2023/06/27 05:43:48;;;;;;;16.00;13.60;;;;;;;;;;108275;1253;22585;-82
2023/06/27 05:46:14;;;;;;;14.10;11.70;;;;;;;;;;108248;1253;23180;-82
2023/06/27 05:48:41;;;;;;;12.20;10.10;;;;;;;;;;108239;1266;25472;-82
2023/06/27 05:51:07;;;;;;;16.40;10.70;;;;;;;;;;108209;1253;22990;-82
2023/06/27 05:53:34;;;;;;;15.80;11.10;;;;;;;;;;108220;1251;23241;-81
2023/06/27 05:56:00;;;;;;;12.10;10.60;;;;;;;;;;108176;1251;22568;-82
2023/06/27 05:58:27;;;;;;;13.20;10.40;;;;;;;;;;108166;1251;22537;-82
2023/06/27 06:00:54;;;;;;;16.70;11.70;;;;;;;;;;108276;1253;23046;-82
2023/06/27 06:03:22;;;;;;;14.30;10.80;;;;;;;;;;108196;1250;22616;-82
2023/06/27 06:05:48;;;;;;;13.90;10.80;;;;;;;;;;108288;1251;22535;-81
2023/06/27 06:08:14;;;;;;;13.20;10.10;;;;;;;;;;108399;1253;22619;-82
2023/06/27 06:10:41;;;;;;;11.60;9.10;;;;;;;;;;108448;1250;23149;-82
2023/06/27 06:13:07;;;;;;;13.40;9.40;;;;;;;;;;108506;1250;22588;-82
2023/06/27 06:15:33;;;;;;;13.10;9.60;;;;;;;;;;108378;1251;22606;-82
2023/06/27 06:18:00;;;;;;;11.00;9.60;;;;;;;;;;108284;1253;23276;-82
2023/06/27 06:20:29;;;;;;;11.90;9.80;;;;;;;;;;108325;1251;22527;-82
2023/06/27 06:22:55;;;;;;;15.10;9.80;;;;;;;;;;108334;1254;24317;-82
2023/06/27 06:25:22;;;;;;;11.50;9.90;;;;;;;;;;108301;1250;22636;-81
2023/06/27 06:27:48;;;;;;;13.90;9.10;;;;;;;;;;108381;1253;23113;-82
2023/06/27 06:30:14;;;;;;;12.20;7.00;;;;;;;;;;108315;1253;25333;-82
2023/06/27 06:32:41;;;;;;;11.60;7.40;;;;;;;;;;108390;1254;22802;-82
2023/06/27 06:35:07;;;;;;;18.10;7.50;;;;;;;;;;108342;1252;22573;-82
2023/06/27 06:37:35;;;;;;;9.40;7.10;;;;;;;;;;108302;1251;22476;-82
2023/06/27 06:40:01;;;;;;;10.50;5.80;;;;;;;;;;108479;1251;25296;-82
2023/06/27 06:42:27;;;;;;;8.90;5.70;;;;;;;;;;110631;1251;22582;-83
2023/06/27 06:44:54;;;;;;;11.30;5.60;;;;;;;;;;108626;1251;24221;-82
2023/06/27 06:47:20;;;;;;;6.60;5.10;;;;;;;;;;108343;1253;22779;-82
2023/06/27 06:49:47;;;;;;;8.60;5.20;;;;;;;;;;108392;1250;25326;-82
2023/06/27 06:52:13;;;;;;;8.00;5.20;;;;;;;;;;108812;1250;22558;-82
2023/06/27 06:54:43;;;;;;;9.00;4.70;;;;;;;;;;108579;1253;24234;-82
2023/06/27 06:57:10;;;;;;;11.40;6.50;;;;;;;;;;108777;1254;22896;-83
2023/06/27 06:59:36;;;;;;;9.50;5.90;;;;;;;;;;108572;1251;23117;-82
2023/06/27 07:02:02;;;;;;;6.70;4.70;;;;;;;;;;108795;1251;23089;-82
2023/06/27 07:04:29;;;;;;;7.40;4.80;;;;;;;;;;108592;1251;22660;-82
2023/06/27 07:06:56;;;;;;;9.40;5.00;;;;;;;;;;108665;1253;23133;-82
2023/06/27 07:09:22;;;;;;;6.20;4.60;;;;;;;;;;108541;1253;22547;-82
2023/06/27 07:11:50;;;;;;;7.30;4.60;;;;;;;;;;108526;1253;22557;-82
2023/06/27 07:14:18;;;;;;;12.00;5.70;;;;;;;;;;108682;1253;24189;-82
2023/06/27 07:16:44;;;;;;;14.80;5.60;;;;;;;;;;108800;1251;23244;-82
2023/06/27 07:19:10;;;;;;;7.80;5.70;;;;;;;;;;108622;1251;24218;-82
2023/06/27 07:21:37;;;;;;;10.10;5.60;;;;;;;;;;108729;1250;25221;-82
2023/06/27 07:24:04;;;;;;;9.90;5.40;;;;;;;;;;108630;1251;25382;-82
2023/06/27 07:26:31;;;;;;;10.30;5.30;;;;;;;;;;108588;1251;23757;-81
2023/06/27 07:28:57;;;;;;;10.00;5.70;;;;;;;;;;108299;1250;22559;-82
2023/06/27 07:31:24;;;;;;;7.00;4.50;;;;;;;;;;108438;1251;23787;-82
2023/06/27 07:33:50;;;;;;;7.70;5.70;;;;;;;;;;108451;1251;22538;-82
2023/06/27 07:36:17;;;;;;;8.60;5.00;;;;;;;;;;108380;1253;23158;-82
2023/06/27 07:38:43;;;;;;;11.20;5.40;;;;;;;;;;108525;1252;23068;-82
2023/06/27 07:41:09;;;;;;;8.90;6.00;;;;;;;;;;108569;1251;22534;-81
2023/06/27 07:43:36;;;;;;;11.40;6.10;;;;;;;;;;108399;1250;26099;-82
2023/06/27 07:46:02;;;;;;;7.10;5.40;;;;;;;;;;108563;1256;22993;-82
2023/06/27 07:48:29;;;;;;;11.90;6.20;;;;;;;;;;108449;1255;23213;-82
2023/06/27 07:50:55;;;;;;;10.80;6.10;;;;;;;;;;108548;1251;22566;-82
2023/06/27 07:53:22;;;;;;;10.70;6.10;;;;;;;;;;108658;1255;22556;-82
2023/06/27 07:55:48;;;;;;;13.60;6.00;;;;;;;;;;108472;1251;22547;-82
2023/06/27 07:58:14;;;;;;;7.60;6.30;;;;;;;;;;108379;1251;26440;-82
2023/06/27 08:00:41;;;;;;;7.70;6.20;;;;;;;;;;108451;1255;22579;-82
2023/06/27 08:03:07;;;;;;;8.70;5.70;;;;;;;;;;108316;1254;24209;-82
2023/06/27 08:05:35;;;;;;;14.90;7.60;;;;;;;;;;108308;1249;24233;-82
2023/06/27 08:08:02;;;;;;;8.50;6.20;;;;;;;;;;108517;1251;22723;-82
2023/06/27 08:10:28;;;;;;;10.80;6.10;;;;;;;;;;108435;1251;23155;-81
2023/06/27 08:12:55;;;;;;;10.10;6.30;;;;;;;;;;108403;1250;25539;-82
2023/06/27 08:15:24;;;;;;;10.40;5.60;;;;;;;;;;108491;1250;25312;-81
2023/06/27 08:17:50;;;;;;;13.30;6.70;;;;;;;;;;108443;1253;24383;-82
2023/06/27 08:20:17;;;;;;;15.50;6.40;;;;;;;;;;108264;1251;22619;-82
2023/06/27 08:22:44;;;;;;;12.40;6.50;;;;;;;;;;108469;1251;24227;-82
2023/06/27 08:25:11;;;;;;;12.70;6.80;;;;;;;;;;108068;1251;24647;-80
2023/06/27 08:27:37;;;;;;;9.30;6.40;;;;;;;;;;108396;1254;25259;-79
2023/06/27 08:30:04;;;;;;;11.90;6.10;;;;;;;;;;108438;1255;23244;-80
2023/06/27 08:32:31;;;;;;;9.00;7.40;;;;;;;;;;108519;1250;22716;-80
2023/06/27 08:34:58;;;;;;;8.60;6.50;;;;;;;;;;108354;1251;24238;-80
2023/06/27 08:37:24;;;;;;;12.60;6.90;;;;;;;;;;108365;1251;25504;-80
2023/06/27 08:39:52;;;;;;;9.40;6.40;;;;;;;;;;108358;1253;22700;-80
2023/06/27 08:42:19;;;;;;;7.90;6.70;;;;;;;;;;108447;1253;23353;-80
2023/06/27 08:44:45;;;;;;;8.30;6.80;;;;;;;;;;108342;1250;23127;-80
2023/06/27 08:47:11;;;;;;;10.40;6.60;;;;;;;;;;108316;1251;23124;-80
2023/06/27 08:49:38;;;;;;;13.40;7.80;;;;;;;;;;108395;1251;22531;-80
2023/06/27 08:52:04;;;;;;;9.20;6.60;;;;;;;;;;109785;1251;23327;-80
2023/06/27 08:54:32;;;;;;;11.70;7.80;;;;;;;;;;109209;1251;22532;-81
2023/06/27 08:56:59;;;;;;;16.00;8.10;;;;;;;;;;108496;1254;23133;-81
2023/06/27 08:59:26;;;;;;;14.00;9.20;;;;;;;;;;108365;1251;25364;-81
2023/06/27 09:01:53;;;;;;;11.80;8.40;;;;;;;;;;108452;1253;22694;-80
2023/06/27 09:04:19;;;;;;;27.80;19.50;;;;;;;;;;108255;1251;22545;-80
2023/06/27 09:06:46;;;;;;;54.20;37.40;;;;;;;;;;108385;1251;23059;-80
2023/06/27 09:09:14;;;;;;;16.50;12.40;;;;;;;;;;108298;1256;22641;-80
2023/06/27 09:11:41;;;;;;;14.10;10.20;;;;;;;;;;108385;1251;22538;-81
2023/06/27 09:14:08;;;;;;;9.90;8.60;;;;;;;;;;108417;1250;22962;-81
2023/06/27 09:16:34;;;;;;;14.60;9.00;;;;;;;;;;108414;1254;25502;-81
2023/06/27 09:19:01;;;;;;;10.80;8.00;;;;;;;;;;108330;1251;23350;-81
2023/06/27 09:21:27;;;;;;;9.20;7.30;;;;;;;;;;108332;1251;22509;-81
2023/06/27 09:23:54;;;;;;;15.90;6.60;;;;;;;;;;108332;1251;22642;-81
2023/06/27 09:26:20;;;;;;;9.00;6.50;;;;;;;;;;108400;1253;22531;-81
2023/06/27 09:28:47;;;;;;;10.10;7.50;;;;;;;;;;108337;1251;22528;-81
2023/06/27 09:31:14;;;;;;;12.50;6.80;;;;;;;;;;108479;1251;22801;-81
2023/06/27 09:33:42;;;;;;;12.80;6.80;;;;;;;;;;108425;1251;22559;-81
2023/06/27 09:36:09;;;;;;;9.00;6.40;;;;;;;;;;108361;1251;24301;-81
2023/06/27 09:38:35;;;;;;;14.30;6.50;;;;;;;;;;108325;1251;22554;-81
2023/06/27 09:41:05;;;;;;;10.10;6.60;;;;;;;;;;108477;1251;23770;-81
2023/06/27 09:43:33;;;;;;;7.30;5.20;;;;;;;;;;108434;1250;24219;-81
2023/06/27 09:45:59;;;;;;;10.90;5.50;;;;;;;;;;108253;1251;22551;-81
2023/06/27 09:48:27;;;;;;;9.60;6.30;;;;;;;;;;108292;1251;22536;-81
2023/06/27 09:50:57;;;;;;;9.20;5.60;;;;;;;;;;108404;1251;25400;-81
2023/06/27 09:53:24;;;;;;;13.50;6.20;;;;;;;;;;108519;1251;22544;-81
2023/06/27 09:55:55;;;;;;;8.80;5.90;;;;;;;;;;108387;1251;22660;-81
2023/06/27 09:58:25;;;;;;;8.70;5.90;;;;;;;;;;108316;1253;22542;-81
2023/06/27 10:00:51;;;;;;;10.80;6.20;;;;;;;;;;108466;1250;22554;-81
2023/06/27 10:03:20;;;;;;;6.80;5.70;;;;;;;;;;108399;1251;23929;-81
2023/06/27 10:05:46;;;;;;;8.00;5.60;;;;;;;;;;108438;1251;23168;-81
2023/06/27 10:08:13;;;;;;;10.30;6.10;;;;;;;;;;108504;1253;22533;-81
2023/06/27 10:10:39;;;;;;;9.90;5.70;;;;;;;;;;108554;1251;23298;-81
2023/06/27 10:13:06;;;;;;;10.10;6.60;;;;;;;;;;108504;1251;25304;-81
2023/06/27 10:15:32;;;;;;;8.60;5.10;;;;;;;;;;108209;1251;22693;-81
2023/06/27 10:17:59;;;;;;;6.70;5.00;;;;;;;;;;108364;1251;22647;-81
2023/06/27 10:20:25;;;;;;;6.80;5.40;;;;;;;;;;108482;1251;24365;-81
2023/06/27 10:22:51;;;;;;;7.90;5.30;;;;;;;;;;108556;1251;22583;-81
2023/06/27 10:25:18;;;;;;;9.80;5.70;;;;;;;;;;108253;1252;22518;-81
2023/06/27 10:27:44;;;;;;;11.80;5.70;;;;;;;;;;108459;1251;23140;-81
2023/06/27 10:30:13;;;;;;;8.70;5.00;;;;;;;;;;108372;1250;22649;-81
2023/06/27 10:32:43;;;;;;;8.20;5.40;;;;;;;;;;109497;1251;23072;-81
2023/06/27 10:35:11;;;;;;;7.10;4.40;;;;;;;;;;108067;1254;25274;-81
2023/06/27 10:37:42;;;;;;;4.70;4.20;;;;;;;;;;108255;1251;22671;-81
2023/06/27 10:40:09;;;;;;;11.20;4.90;;;;;;;;;;108300;1251;22822;-81
2023/06/27 10:42:35;;;;;;;9.50;4.50;;;;;;;;;;108438;1251;22690;-81
2023/06/27 10:45:06;;;;;;;6.80;4.10;;;;;;;;;;108341;1251;23175;-82
2023/06/27 10:47:38;;;;;;;6.40;4.50;;;;;;;;;;108671;1251;22520;-82
2023/06/27 10:50:10;;;;;;;10.50;4.70;;;;;;;;;;108307;1251;22621;-81
2023/06/27 10:52:37;;;;;;;8.50;4.90;;;;;;;;;;108533;1251;22719;-82
2023/06/27 10:55:18;;;;;;;9.00;4.90;;;;;;;;;;108241;1251;22658;-81
2023/06/27 10:57:45;;;;;;;10.00;5.20;;;;;;;;;;108267;1249;22641;-82
2023/06/27 11:00:23;;;;;;;6.50;4.70;;;;;;;;;;108209;1251;23315;-82
2023/06/27 11:02:54;;;;;;;;;;;;;;;;;;108359;1251;23956;-82
2023/06/27 11:05:34;;;;;;;11.30;5.00;;;;;;;;;;108254;1254;22525;-82
2023/06/27 11:08:01;;;;;;;8.00;5.20;;;;;;;;;;108220;1251;22590;-82
2023/06/27 11:10:29;;;;;;;15.50;4.90;;;;;;;;;;108301;1251;22545;-82
2023/06/27 11:13:14;;;;;;;5.60;4.00;;;;;;;;;;108410;1250;22570;-82
2023/06/27 11:15:42;;;;;;;5.30;3.50;;;;;;;;;;108129;1251;22641;-82
2023/06/27 11:18:08;;;;;;;8.20;3.50;;;;;;;;;;108263;1251;25633;-82
2023/06/27 11:20:35;;;;;;;7.90;3.90;;;;;;;;;;108238;1251;22656;-82
2023/06/27 11:23:03;;;;;;;8.80;3.80;;;;;;;;;;108067;1252;22746;-82
2023/06/27 11:25:36;;;;;;;8.90;3.70;;;;;;;;;;108158;1251;22572;-82
2023/06/27 11:28:03;;;;;;;6.30;3.60;;;;;;;;;;108201;1251;22594;-82
2023/06/27 11:30:30;;;;;;;6.70;3.40;;;;;;;;;;108334;1250;22647;-82
2023/06/27 11:32:56;;;;;;;5.80;3.30;;;;;;;;;;108272;1251;22547;-82
2023/06/27 11:35:23;;;;;;;7.30;3.40;;;;;;;;;;108318;1251;22596;-82
2023/06/27 11:37:56;;;;;;;8.10;3.40;;;;;;;;;;108251;1254;24350;-81
2023/06/27 11:40:26;;;;;;;4.00;3.30;;;;;;;;;;108157;1251;22641;-82
2023/06/27 11:43:18;;;;;;;10.00;3.20;;;;;;;;;;108396;1251;22836;-82
2023/06/27 11:45:45;;;;;;;5.60;3.00;;;;;;;;;;108324;1251;24264;-82
2023/06/27 11:48:12;;;;;;;4.30;3.00;;;;;;;;;;108218;1251;25397;-82
2023/06/27 11:50:57;;;;;;;9.10;3.40;;;;;;;;;;108218;1251;22612;-82
2023/06/27 11:53:24;;;;;;;9.90;3.70;;;;;;;;;;108209;1251;22560;-82
2023/06/27 11:55:51;;;;;;;8.70;3.00;;;;;;;;;;108209;1251;24318;-82
2023/06/27 11:58:17;;;;;;;6.90;3.40;;;;;;;;;;108157;1251;24905;-82
2023/06/27 12:00:43;;;;;;;6.80;2.90;;;;;;;;;;108159;1251;22589;-82
2023/06/27 12:03:10;;;;;;;7.30;2.90;;;;;;;;;;108351;1251;22568;-82
2023/06/27 12:05:42;;;;;;;7.60;2.60;;;;;;;;;;108305;1251;22634;-82
2023/06/27 12:08:09;;;;;;;4.10;2.30;;;;;;;;;;108312;1251;22619;-83
2023/06/27 12:10:52;;;;;;;6.90;3.10;;;;;;;;;;108234;1251;23727;-82
2023/06/27 12:13:19;;;;;;;7.80;2.20;;;;;;;;;;108344;1254;22546;-83
2023/06/27 12:15:45;;;;;;;7.50;3.00;;;;;;;;;;108214;1250;22531;-82
2023/06/27 12:18:27;;;;;;;3.60;1.90;;;;;;;;;;108484;1251;22714;-82
2023/06/27 12:20:53;;;;;;;5.30;2.10;;;;;;;;;;108560;1251;24276;-82
2023/06/27 12:23:20;;;;;;;5.70;2.30;;;;;;;;;;108331;1250;25490;-83
2023/06/27 12:25:46;;;;;;;3.10;1.80;;;;;;;;;;108225;1251;22533;-83
2023/06/27 12:28:13;;;;;;;4.90;2.20;;;;;;;;;;108183;1251;25503;-83
2023/06/27 12:30:39;;;;;;;8.70;2.70;;;;;;;;;;108225;1250;22581;-82
2023/06/27 12:33:06;;;;;;;7.40;2.30;;;;;;;;;;108300;1251;23289;-82
2023/06/27 12:35:32;;;;;;;3.40;2.10;;;;;;;;;;108145;1251;23790;-82
2023/06/27 12:37:59;;;;;;;5.60;2.10;;;;;;;;;;108196;1251;23294;-82
2023/06/27 12:40:25;;;;;;;12.20;2.40;;;;;;;;;;108082;1250;22536;-82
2023/06/27 12:42:52;;;;;;;6.60;2.80;;;;;;;;;;108323;1251;22535;-82
2023/06/27 12:45:19;;;;;;;7.60;2.00;;;;;;;;;;108183;1256;23289;-82
2023/06/27 12:47:45;;;;;;;5.00;2.20;;;;;;;;;;108152;1251;25464;-82
2023/06/27 12:50:16;;;;;;;3.90;2.00;;;;;;;;;;108157;1251;22584;-82
2023/06/27 12:52:47;;;;;;;4.90;2.20;;;;;;;;;;108340;1251;22578;-82
2023/06/27 12:55:18;;;;;;;5.80;2.50;;;;;;;;;;108109;1251;23502;-81
2023/06/27 12:57:44;;;;;;;7.70;2.80;;;;;;;;;;108224;1251;24403;-82
2023/06/27 13:00:11;;;;;;;4.90;2.30;;;;;;;;;;108387;1251;25178;-82
2023/06/27 13:02:38;;;;;;;7.30;2.70;;;;;;;;;;108529;1249;22971;-82
2023/06/27 13:05:04;;;;;;;7.90;2.70;;;;;;;;;;108241;1251;26343;-82
2023/06/27 13:07:31;;;;;;;5.80;2.50;;;;;;;;;;108094;1250;23208;-80
2023/06/27 13:09:58;;;;;;;11.60;3.80;;;;;;;;;;108269;1251;22845;-81
2023/06/27 13:12:24;;;;;;;9.00;3.30;;;;;;;;;;108371;1251;23370;-81
2023/06/27 13:14:51;;;;;;;4.00;2.50;;;;;;;;;;108162;1251;22618;-81
2023/06/27 13:17:17;;;;;;;5.70;2.50;;;;;;;;;;108126;1251;24318;-80
2023/06/27 13:19:44;;;;;;;9.00;2.80;;;;;;;;;;108112;1251;23006;-81
2023/06/27 13:22:10;;;;;;;9.50;2.90;;;;;;;;;;108331;1251;22946;-81
2023/06/27 13:24:37;;;;;;;3.90;2.20;;;;;;;;;;108213;1250;23248;-81
2023/06/27 13:27:03;;;;;;;3.60;2.40;;;;;;;;;;108153;1251;22583;-81
2023/06/27 13:29:30;;;;;;;5.50;2.70;;;;;;;;;;108160;1251;22652;-81
2023/06/27 13:31:56;;;;;;;11.30;2.90;;;;;;;;;;108494;1251;23509;-81
2023/06/27 13:34:23;;;;;;;8.00;2.70;;;;;;;;;;108397;1251;22518;-81
2023/06/27 13:36:49;;;;;;;4.90;2.30;;;;;;;;;;108512;1250;23244;-81
2023/06/27 13:39:16;;;;;;;9.50;2.70;;;;;;;;;;108320;1250;22651;-81
2023/06/27 13:41:43;;;;;;;3.70;1.90;;;;;;;;;;108499;1251;22629;-81
2023/06/27 13:44:12;;;;;;;4.20;2.00;;;;;;;;;;108444;1250;23241;-81
2023/06/27 13:46:38;;;;;;;6.20;1.90;;;;;;;;;;108396;1251;24246;-80
2023/06/27 13:49:08;;;;;;;6.10;2.30;;;;;;;;;;108348;1251;22654;-81
2023/06/27 13:51:35;;;;;;;4.20;2.50;;;;;;;;;;108458;1251;22610;-81
2023/06/27 13:54:02;;;;;;;3.30;2.40;;;;;;;;;;108339;1249;25318;-81
2023/06/27 13:56:28;;;;;;;5.40;2.10;;;;;;;;;;108302;1251;26456;-81
2023/06/27 13:58:55;;;;;;;4.80;2.10;;;;;;;;;;108599;1254;25217;-81
2023/06/27 14:01:21;;;;;;;6.40;2.40;;;;;;;;;;108600;1250;22582;-81
2023/06/27 14:03:48;;;;;;;8.80;3.50;;;;;;;;;;108489;1250;22553;-81
2023/06/27 14:06:14;;;;;;;7.20;2.80;;;;;;;;;;108232;1252;22605;-81
2023/06/27 14:08:41;;;;;;;6.90;2.70;;;;;;;;;;108358;1251;22547;-81
2023/06/27 14:11:10;;;;;;;5.90;2.50;;;;;;;;;;108325;1251;22583;-81
2023/06/27 14:13:37;;;;;;;8.30;2.10;;;;;;;;;;108314;1250;23748;-80
2023/06/27 14:16:03;;;;;;;5.90;2.20;;;;;;;;;;108254;1251;23024;-80
2023/06/27 14:18:30;;;;;;;7.00;2.70;;;;;;;;;;108234;1251;22729;-81